EPRZ/RZE METAR and TAF weather

Enter ICAO airport designator
Station Type Date Time Source
EPRZ METAR 2018/04/23 11:30 UTC NOAA

EPRZ 231130Z 18004KT 120V230 CAVOK 20/01 Q1013


Station Type Date Time Source
EPRZ Decoded METAR 2018/04/23 11:30 UTC NOAA

Rzeszow-Jasionka, Poland (EPRZ) 50-06N 022-03E 202M
Apr 23, 2018 - 07:30 AM EDT / 2018.04.23 1130 UTC
Wind: from the S (180 degrees) at 5 MPH (4 KT) (direction variable):0
Visibility: greater than 7 mile(s):0
Temperature: 68 F (20 C)
Dew Point: 33 F (1 C)
Relative Humidity: 28%
Pressure (altimeter): 29.91 in. Hg (1013 hPa)
ob: EPRZ 231130Z 18004KT 120V230 CAVOK 20/01 Q1013
cycle: 11

Station Type Date Time Source
EPRZ TAF 2018/04/23 12:33 UTC NOAA

TAF EPRZ 231130Z 2312/2412 18008KT CAVOK
TEMPO 2312/2317 BKN040CB
TEMPO 2317/2323 VRB26G30KT 3000 TSRA BKN030CB
BECMG 2320/2323 26012KT
TEMPO 2323/2401 BKN030CB
BECMG 2401/2403 BKN012
BECMG 2407/2409 BKN033


Example: see airport list